createdAt,value
2017-09-11T00:01:56.989Z,99325.98
2017-09-11T00:04:28.378Z,99332.11
2017-09-11T00:06:59.711Z,99333.86
2017-09-11T00:09:31.223Z,99329.11
2017-09-11T00:12:05.088Z,99316.73
2017-09-11T00:14:36.853Z,99323.91
2017-09-11T00:17:08.351Z,99311.51
2017-09-11T00:22:49.230Z,99309.12
2017-09-11T00:25:20.928Z,99305.02
2017-09-11T00:30:56.874Z,99302.56
2017-09-11T00:33:28.707Z,99294.22
2017-09-11T00:36:00.170Z,99291.09
2017-09-11T00:44:22.795Z,99292.95
2017-09-11T00:46:54.269Z,99284.94
2017-09-11T00:49:25.992Z,99298.28
2017-09-11T00:51:57.992Z,99293.56
2017-09-11T00:54:31.401Z,99294.94
2017-09-11T00:57:04.375Z,99292.91
2017-09-11T00:59:37.580Z,99285.19
2017-09-11T01:02:26.460Z,99293.55
2017-09-11T01:04:57.979Z,99286.47
2017-09-11T01:07:41.131Z,99281.48
2017-09-11T01:10:12.898Z,99277.10
2017-09-11T01:12:44.626Z,99273.86
2017-09-11T01:15:39.461Z,99269.09
2017-09-11T01:18:12.175Z,99271.36
2017-09-11T01:20:43.886Z,99269.90
2017-09-11T01:23:26.828Z,99266.47
2017-09-11T01:25:58.284Z,99263.22
2017-09-11T01:28:29.657Z,99267.74
2017-09-11T01:31:01.701Z,99260.86
2017-09-11T01:33:33.491Z,99250.64
2017-09-11T01:36:06.208Z,99271.52
2017-09-11T01:38:37.993Z,99257.64
2017-09-11T01:41:09.161Z,99249.30
2017-09-11T01:46:54.099Z,99239.56
2017-09-11T01:49:25.427Z,99250.25
2017-09-11T01:51:56.738Z,99245.87
2017-09-11T01:57:24.045Z,99250.22
2017-09-11T01:59:55.461Z,99251.20
2017-09-11T02:02:27.458Z,99248.09
2017-09-11T02:04:58.820Z,99248.51
2017-09-11T02:07:30.756Z,99245.98
2017-09-11T02:10:24.353Z,99244.80
2017-09-11T02:12:55.760Z,99239.66
2017-09-11T02:15:27.088Z,99248.10
2017-09-11T02:20:53.967Z,99239.23
2017-09-11T02:23:40.914Z,99240.19
2017-09-11T02:26:12.835Z,99230.20
2017-09-11T02:28:43.972Z,99229.63
2017-09-11T02:31:15.498Z,99227.19
2017-09-11T02:33:47.494Z,99219.97
2017-09-11T02:36:19.018Z,99221.34
2017-09-11T02:38:50.700Z,99207.81
2017-09-11T02:41:22.048Z,99210.36
2017-09-11T02:43:53.796Z,99202.53
2017-09-11T02:46:25.384Z,99200.88
2017-09-11T02:48:56.717Z,99190.38
2017-09-11T02:57:17.898Z,99185.47
2017-09-11T02:59:57.534Z,99188.64
2017-09-11T03:02:29.151Z,99193.87
2017-09-11T03:07:55.807Z,99172.77
2017-09-11T03:10:27.104Z,99167.20
2017-09-11T03:12:58.407Z,99165.55
2017-09-11T03:18:27.453Z,99164.45
2017-09-11T03:20:59.136Z,99168.11
2017-09-11T03:23:30.521Z,99159.27
2017-09-11T03:26:15.385Z,99163.08
2017-09-11T03:28:46.773Z,99155.22
2017-09-11T03:31:40.635Z,99153.09
2017-09-11T03:34:16.998Z,99149.75
2017-09-11T03:36:48.324Z,99144.55
2017-09-11T03:39:19.698Z,99145.31
2017-09-11T03:42:18.390Z,99142.34
2017-09-11T03:44:49.815Z,99132.87
2017-09-11T03:47:40.595Z,99128.75
2017-09-11T03:50:12.552Z,99132.65
2017-09-11T03:52:43.922Z,99125.27
2017-09-11T03:55:48.284Z,99121.81
2017-09-11T03:58:23.306Z,99126.78
2017-09-11T04:00:57.740Z,99123.86
2017-09-11T04:03:29.366Z,99127.00
2017-09-11T04:06:00.901Z,99126.50
2017-09-11T04:08:33.728Z,99124.64
2017-09-11T04:11:05.014Z,99111.53
2017-09-11T04:13:36.388Z,99108.38
2017-09-11T04:16:13.792Z,99105.06
2017-09-11T04:21:45.732Z,99105.41
2017-09-11T04:24:19.834Z,99101.53
2017-09-11T04:26:51.319Z,99104.12
2017-09-11T04:29:23.740Z,99098.75
2017-09-11T04:31:55.256Z,99093.39
2017-09-11T04:34:37.681Z,99098.70
2017-09-11T04:37:11.605Z,99096.95
2017-09-11T04:39:44.334Z,99106.87
2017-09-11T04:42:18.232Z,99094.09
2017-09-11T04:44:49.417Z,99091.11
2017-09-11T04:50:20.221Z,99087.63
2017-09-11T04:52:51.941Z,99085.92
2017-09-11T04:55:25.717Z,99081.95
2017-09-11T04:57:57.113Z,99080.22
2017-09-11T05:00:28.352Z,99078.61
2017-09-11T05:03:00.014Z,99079.62
2017-09-11T05:05:31.249Z,99080.45
2017-09-11T05:08:03.261Z,99075.94
2017-09-11T05:10:34.663Z,99076.78
2017-09-11T05:13:07.905Z,99078.41
2017-09-11T05:15:39.670Z,99077.71
2017-09-11T05:18:11.291Z,99072.51
2017-09-11T05:20:42.796Z,99068.42
2017-09-11T05:23:14.455Z,99069.06
2017-09-11T05:26:09.304Z,99064.84
2017-09-11T05:28:41.739Z,99076.48
2017-09-11T05:31:13.177Z,99069.01
2017-09-11T05:36:40.806Z,99074.62
2017-09-11T05:39:12.766Z,99068.38
2017-09-11T05:41:44.599Z,99072.33
2017-09-11T05:44:16.025Z,99080.92
2017-09-11T05:46:48.925Z,99082.17
2017-09-11T05:49:39.539Z,99080.81
2017-09-11T05:52:12.249Z,99080.67
2017-09-11T05:54:44.122Z,99076.90
2017-09-11T05:57:26.793Z,99071.31
2017-09-11T05:59:58.127Z,99073.30
2017-09-11T06:02:29.465Z,99075.78
2017-09-11T06:05:12.504Z,99079.04
2017-09-11T06:07:43.998Z,99074.94
2017-09-11T06:10:15.320Z,99068.14
2017-09-11T06:12:46.842Z,99073.63
2017-09-11T06:15:18.366Z,99077.61
2017-09-11T06:17:57.086Z,99075.81
2017-09-11T06:23:06.069Z,99075.85
2017-09-11T06:25:37.672Z,99066.81
2017-09-11T06:28:09.021Z,99064.84
2017-09-11T06:30:57.982Z,99059.27
2017-09-11T06:33:30.798Z,99063.45
2017-09-11T06:36:03.534Z,99061.02
2017-09-11T06:38:34.992Z,99052.17
2017-09-11T06:41:06.253Z,99051.61
2017-09-11T06:43:55.660Z,99063.03
2017-09-11T06:46:26.986Z,99066.14
2017-09-11T06:48:58.253Z,99068.73
2017-09-11T06:51:29.858Z,99069.42
2017-09-11T06:54:01.728Z,99069.00
2017-09-11T06:56:55.294Z,99077.40
2017-09-11T06:59:26.785Z,99085.60
2017-09-11T07:01:59.662Z,99083.11
2017-09-11T07:04:34.711Z,99087.30
2017-09-11T07:07:09.863Z,99084.38
2017-09-11T07:09:46.451Z,99091.27
2017-09-11T07:12:26.741Z,99091.06
2017-09-11T07:14:58.352Z,99090.35
2017-09-11T07:17:30.137Z,99093.63
2017-09-11T07:20:08.996Z,99085.69
2017-09-11T07:22:42.027Z,99084.09
2017-09-11T07:25:16.911Z,99074.42
2017-09-11T07:27:48.571Z,99079.59
2017-09-11T07:30:19.872Z,99078.69
2017-09-11T07:32:51.027Z,99079.59
2017-09-11T07:35:22.718Z,99074.66
2017-09-11T07:37:53.927Z,99078.99
2017-09-11T07:40:27.853Z,99082.45
2017-09-11T07:43:02.161Z,99088.61
2017-09-11T07:45:35.673Z,99094.58
2017-09-11T07:48:10.330Z,99098.28
2017-09-11T07:50:44.198Z,99089.03
2017-09-11T07:53:16.682Z,99097.09
2017-09-11T07:55:54.789Z,99079.47
2017-09-11T07:58:35.914Z,99077.69
2017-09-11T08:01:08.177Z,99096.95
2017-09-11T08:03:44.693Z,99093.81
2017-09-11T08:06:19.075Z,99086.98
2017-09-11T08:08:51.951Z,99097.77
2017-09-11T08:11:23.404Z,99093.12
2017-09-11T08:13:54.617Z,99088.45
2017-09-11T08:16:27.330Z,99096.44
2017-09-11T08:21:53.731Z,99095.93
2017-09-11T08:24:26.096Z,99084.82
2017-09-11T08:27:00.820Z,99100.14
2017-09-11T08:29:32.709Z,99094.37
2017-09-11T08:37:48.237Z,99094.80
2017-09-11T08:40:21.170Z,99094.14
2017-09-11T08:42:54.114Z,99098.70
2017-09-11T08:45:31.726Z,99094.39
2017-09-11T08:48:07.240Z,99083.52
2017-09-11T08:50:43.203Z,99094.45
2017-09-11T08:53:16.097Z,99084.19
2017-09-11T08:56:04.316Z,99087.59
2017-09-11T08:58:35.978Z,99089.77
2017-09-11T09:01:12.481Z,99081.23
2017-09-11T09:03:48.810Z,99076.22
2017-09-11T09:06:21.866Z,99067.29
2017-09-11T09:08:53.706Z,99071.03
2017-09-11T09:11:25.924Z,99072.05
2017-09-11T09:14:16.199Z,99076.20
2017-09-11T09:16:48.759Z,99070.56
2017-09-11T09:19:19.918Z,99075.75
2017-09-11T09:21:52.246Z,99072.56
2017-09-11T09:24:26.485Z,99084.31
2017-09-11T09:27:00.288Z,99083.89
2017-09-11T09:29:33.200Z,99095.52
2017-09-11T09:32:11.215Z,99103.53
2017-09-11T09:34:44.990Z,99105.47
2017-09-11T09:37:16.260Z,99110.31
2017-09-11T09:42:46.460Z,99104.34
2017-09-11T09:45:18.359Z,99105.83
2017-09-11T09:47:49.704Z,99110.39
2017-09-11T09:50:30.530Z,99109.63
2017-09-11T09:53:12.127Z,99099.97
2017-09-11T09:58:45.016Z,99097.88
2017-09-11T10:05:00.430Z,99093.70
2017-09-11T10:16:36.724Z,99070.81
2017-09-11T10:19:10.059Z,99067.48
2017-09-11T10:21:44.441Z,99080.20
2017-09-11T10:25:38.508Z,99085.70
2017-09-11T10:28:10.145Z,99089.98
2017-09-11T10:30:41.663Z,99103.80
2017-09-11T10:33:12.780Z,99113.17
2017-09-11T10:35:44.342Z,99118.90
2017-09-11T10:38:16.329Z,99123.16
2017-09-11T10:40:50.179Z,99132.56
2017-09-11T10:43:21.709Z,99138.32
2017-09-11T10:45:59.983Z,99149.23
2017-09-11T10:48:45.377Z,99153.38
2017-09-11T10:51:20.958Z,99149.42
2017-09-11T10:54:14.338Z,99144.70
2017-09-11T10:56:46.935Z,99143.80
2017-09-11T10:59:19.733Z,99143.70
2017-09-11T11:01:55.471Z,99142.87
2017-09-11T11:04:31.534Z,99151.20
2017-09-11T11:07:11.704Z,99152.00
2017-09-11T11:09:46.191Z,99165.91
2017-09-11T11:12:21.177Z,99160.23
2017-09-11T11:14:52.985Z,99152.34
2017-09-11T11:17:26.045Z,99154.85
2017-09-11T11:19:58.285Z,99156.16
2017-09-11T11:22:29.465Z,99162.25
2017-09-11T11:25:01.188Z,99164.49
2017-09-11T11:27:32.494Z,99167.58
2017-09-11T11:30:04.741Z,99181.56
2017-09-11T11:32:38.119Z,99175.63
2017-09-11T11:35:11.115Z,99173.62
2017-09-11T11:37:42.770Z,99173.43
2017-09-11T11:40:14.156Z,99173.64
2017-09-11T11:42:46.294Z,99179.38
2017-09-11T11:45:19.396Z,99176.39
2017-09-11T11:47:50.658Z,99182.00
2017-09-11T11:50:31.828Z,99187.87
2017-09-11T11:53:05.640Z,99170.84
2017-09-11T11:58:29.045Z,99173.89
2017-09-11T12:02:36.807Z,99175.91
2017-09-11T12:05:10.323Z,99185.72
2017-09-11T12:10:22.578Z,99179.16
2017-09-11T12:12:54.249Z,99173.89
2017-09-11T12:15:28.299Z,99175.37
2017-09-11T12:18:01.915Z,99182.44
2017-09-11T12:20:38.996Z,99192.22
2017-09-11T12:23:12.698Z,99190.06
2017-09-11T12:25:47.418Z,99186.06
2017-09-11T12:28:20.742Z,99180.11
2017-09-11T12:30:57.096Z,99179.53
2017-09-11T12:33:39.770Z,99168.59
2017-09-11T12:36:14.057Z,99149.17
2017-09-11T12:39:47.950Z,99155.17
2017-09-11T12:42:24.128Z,99162.52
2017-09-11T12:44:59.781Z,99157.19
2017-09-11T12:47:34.376Z,99159.11
2017-09-11T12:50:10.845Z,99150.19
2017-09-11T12:52:43.542Z,99152.17
2017-09-11T12:55:17.188Z,99148.34
2017-09-11T12:57:53.129Z,99136.41
2017-09-11T13:00:27.779Z,99138.78
2017-09-11T13:03:02.643Z,99165.53
2017-09-11T13:05:38.822Z,99167.50
2017-09-11T13:08:13.433Z,99171.95
2017-09-11T13:10:46.061Z,99177.67
2017-09-11T13:13:37.493Z,99169.84
2017-09-11T13:16:15.721Z,99174.39
2017-09-11T13:18:49.195Z,99170.00
2017-09-11T13:24:24.091Z,99189.22
2017-09-11T13:26:59.025Z,99209.30
2017-09-11T13:29:31.744Z,99238.11
2017-09-11T13:34:58.451Z,99260.36
2017-09-11T13:37:29.592Z,99257.05
2017-09-11T13:40:04.160Z,99241.69
2017-09-11T13:42:40.902Z,99248.96
2017-09-11T13:45:16.527Z,99239.03
2017-09-11T13:47:52.075Z,99232.09
2017-09-11T13:53:22.115Z,99211.59
2017-09-11T13:55:53.429Z,99216.45
2017-09-11T13:58:32.061Z,99202.48
2017-09-11T14:01:03.588Z,99192.12
2017-09-11T14:03:47.245Z,99191.75
2017-09-11T14:06:23.710Z,99178.53
2017-09-11T14:08:55.442Z,99172.14
2017-09-11T14:11:26.669Z,99183.62
2017-09-11T14:13:58.082Z,99185.70
2017-09-11T14:16:29.520Z,99190.41
2017-09-11T14:19:01.937Z,99201.92
2017-09-11T14:21:33.339Z,99210.14
2017-09-11T14:24:05.604Z,99208.17
2017-09-11T14:26:41.899Z,99208.63
2017-09-11T14:32:08.458Z,99210.96
2017-09-11T14:34:42.663Z,99211.59
2017-09-11T14:37:30.017Z,99213.90
2017-09-11T14:40:11.287Z,99221.10
2017-09-11T14:42:45.344Z,99219.23
2017-09-11T14:45:28.440Z,99215.59
2017-09-11T14:48:04.923Z,99212.84
2017-09-11T14:50:40.124Z,99204.41
2017-09-11T14:53:11.766Z,99200.02
2017-09-11T14:56:07.065Z,99196.59
2017-09-11T15:01:51.253Z,99198.34
2017-09-11T15:04:25.186Z,99203.88
2017-09-11T15:06:59.915Z,99210.30
2017-09-11T15:09:31.892Z,99217.39
2017-09-11T15:12:17.289Z,99208.23
2017-09-11T15:14:49.067Z,99220.80
2017-09-11T15:17:27.070Z,99226.00
2017-09-11T15:20:00.501Z,99238.47
2017-09-11T15:22:34.229Z,99239.48
2017-09-11T15:25:06.902Z,99236.83
2017-09-11T15:27:40.529Z,99229.92
2017-09-11T15:30:24.029Z,99230.70
2017-09-11T15:32:55.991Z,99228.62
2017-09-11T15:35:28.649Z,99231.27
2017-09-11T15:38:01.638Z,99224.58
2017-09-11T15:40:33.390Z,99219.73
2017-09-11T15:43:06.378Z,99218.06
2017-09-11T15:45:41.421Z,99224.69
2017-09-11T15:48:13.580Z,99230.23
2017-09-11T15:50:49.255Z,99230.15
2017-09-11T15:53:21.551Z,99214.59
2017-09-11T15:56:45.908Z,99214.91
2017-09-11T15:59:18.316Z,99207.77
2017-09-11T16:01:49.637Z,99208.30
2017-09-11T16:04:21.040Z,99208.72
2017-09-11T16:06:52.585Z,99209.91
2017-09-11T16:09:23.845Z,99217.06
2017-09-11T16:11:57.436Z,99221.84
2017-09-11T16:14:31.417Z,99224.08
2017-09-11T16:17:16.000Z,99226.01
2017-09-11T16:19:48.942Z,99224.41
2017-09-11T16:22:29.782Z,99228.34
2017-09-11T16:25:01.385Z,99228.62
2017-09-11T16:27:32.720Z,99229.03
2017-09-11T16:33:04.324Z,99234.48
2017-09-11T16:35:38.388Z,99223.08
2017-09-11T16:38:13.801Z,99240.41
2017-09-11T16:40:46.443Z,99249.34
2017-09-11T16:43:17.961Z,99255.03
2017-09-11T16:45:49.315Z,99259.36
2017-09-11T16:48:21.470Z,99259.27
2017-09-11T16:50:53.821Z,99268.73
2017-09-11T16:53:31.084Z,99266.82
2017-09-11T16:56:42.057Z,99274.85
2017-09-11T16:59:14.714Z,99271.55
2017-09-11T17:01:50.916Z,99280.30
2017-09-11T17:07:14.767Z,99278.06
2017-09-11T17:09:46.761Z,99280.23
2017-09-11T17:12:20.962Z,99271.89
2017-09-11T17:14:52.585Z,99291.45
2017-09-11T17:17:24.812Z,99291.22
2017-09-11T17:19:59.689Z,99281.18
2017-09-11T17:22:31.938Z,99290.81
2017-09-11T17:25:03.826Z,99291.09
2017-09-11T17:27:34.940Z,99292.55
2017-09-11T17:30:14.401Z,99302.89
2017-09-11T17:32:49.036Z,99303.85
2017-09-11T17:35:23.786Z,99312.52
2017-09-11T17:37:55.501Z,99302.39
2017-09-11T17:43:45.806Z,99322.84
2017-09-11T17:46:33.670Z,99329.28
2017-09-11T17:49:18.587Z,99334.61
2017-09-11T17:51:54.790Z,99341.38
2017-09-11T17:54:36.190Z,99347.20
2017-09-11T17:57:08.176Z,99350.30
2017-09-11T17:59:42.511Z,99357.34
2017-09-11T18:02:16.836Z,99356.95
2017-09-11T18:04:54.863Z,99359.02
2017-09-11T18:07:39.236Z,99362.03
2017-09-11T18:10:22.674Z,99364.50
2017-09-11T18:13:11.513Z,99362.69
2017-09-11T18:16:20.214Z,99370.75
2017-09-11T18:18:55.956Z,99371.47
2017-09-11T18:21:28.273Z,99371.45
2017-09-11T18:24:04.164Z,99378.34
2017-09-11T18:26:36.909Z,99384.40
2017-09-11T18:29:12.852Z,99387.62
2017-09-11T18:38:00.546Z,99401.77
2017-09-11T18:40:31.889Z,99403.72
2017-09-11T18:43:07.469Z,99404.63
2017-09-11T18:47:01.525Z,99402.11
2017-09-11T18:49:36.537Z,99404.69
2017-09-11T18:52:08.525Z,99409.21
2017-09-11T18:54:45.034Z,99412.19
2017-09-11T18:57:18.817Z,99412.69
2017-09-11T19:05:43.328Z,99425.08
2017-09-11T19:08:14.777Z,99428.84
2017-09-11T19:10:47.195Z,99428.56
2017-09-11T19:13:21.939Z,99432.38
2017-09-11T19:15:56.669Z,99429.67
2017-09-11T19:18:27.899Z,99434.61
2017-09-11T19:21:00.631Z,99432.30
2017-09-11T19:23:33.237Z,99425.66
2017-09-11T19:26:04.899Z,99425.52
2017-09-11T19:28:39.102Z,99422.06
2017-09-11T19:31:11.441Z,99424.39
2017-09-11T19:33:43.372Z,99429.06
2017-09-11T19:36:16.306Z,99429.13
2017-09-11T19:38:49.433Z,99433.34
2017-09-11T19:41:22.654Z,99435.09
2017-09-11T19:43:57.169Z,99438.48
2017-09-11T19:47:32.657Z,99440.20
2017-09-11T19:50:04.989Z,99446.07
2017-09-11T19:52:36.322Z,99443.56
2017-09-11T19:55:13.745Z,99446.94
2017-09-11T19:57:48.321Z,99448.64
2017-09-11T20:00:27.564Z,99454.13
2017-09-11T20:03:04.104Z,99444.78
2017-09-11T20:05:38.653Z,99450.34
2017-09-11T20:08:20.477Z,99446.63
2017-09-11T20:10:56.634Z,99450.48
2017-09-11T20:13:29.069Z,99453.98
2017-09-11T20:16:03.141Z,99457.20
2017-09-11T20:18:36.517Z,99454.90
2017-09-11T20:21:12.444Z,99460.23
2017-09-11T20:23:48.590Z,99457.59
2017-09-11T20:26:33.006Z,99456.50
2017-09-11T20:31:56.945Z,99456.11
2017-09-11T20:34:40.189Z,99461.40
2017-09-11T20:37:11.350Z,99464.75
2017-09-11T20:39:46.963Z,99462.45
2017-09-11T20:42:18.125Z,99467.44
2017-09-11T20:44:49.511Z,99460.52
2017-09-11T20:47:20.718Z,99470.47
2017-09-11T20:49:52.730Z,99465.27
2017-09-11T20:52:27.637Z,99467.67
2017-09-11T20:55:03.557Z,99471.92
2017-09-11T20:57:36.497Z,99470.05
2017-09-11T21:00:12.112Z,99484.05
2017-09-11T21:02:44.250Z,99477.55
2017-09-11T21:05:16.073Z,99476.41
2017-09-11T21:07:47.276Z,99474.94
2017-09-11T21:10:18.439Z,99478.07
2017-09-11T21:12:52.572Z,99484.52
2017-09-11T21:15:25.784Z,99480.51
2017-09-11T21:18:00.070Z,99486.09
2017-09-11T21:20:33.997Z,99484.42
2017-09-11T21:23:19.509Z,99489.05
2017-09-11T21:25:51.011Z,99491.13
2017-09-11T21:28:23.794Z,99498.58
2017-09-11T21:30:56.455Z,99498.93
2017-09-11T21:33:29.152Z,99497.84
2017-09-11T21:36:04.831Z,99501.17
2017-09-11T21:38:38.815Z,99501.68
2017-09-11T21:41:10.817Z,99504.50
2017-09-11T21:43:43.768Z,99503.89
2017-09-11T21:46:19.412Z,99501.86
2017-09-11T21:48:52.286Z,99497.66
2017-09-11T21:51:25.353Z,99502.55
2017-09-11T21:53:57.300Z,99505.53
2017-09-11T21:56:31.108Z,99508.41
2017-09-11T21:59:03.599Z,99505.40
2017-09-11T22:01:36.032Z,99501.68
2017-09-11T22:04:10.805Z,99503.08
2017-09-11T22:06:43.857Z,99496.16
2017-09-11T22:09:16.027Z,99489.75
2017-09-11T22:11:48.628Z,99492.52
2017-09-11T22:14:21.243Z,99493.23
2017-09-11T22:17:03.743Z,99497.61
2017-09-11T22:19:38.824Z,99496.95
2017-09-11T22:22:33.553Z,99496.90
2017-09-11T22:25:07.709Z,99502.66
2017-09-11T22:27:42.587Z,99502.02
2017-09-11T22:30:16.084Z,99507.51
2017-09-11T22:32:47.659Z,99505.00
2017-09-11T22:35:19.730Z,99501.65
2017-09-11T22:37:51.509Z,99504.77
2017-09-11T22:40:23.739Z,99508.59
2017-09-11T22:42:55.554Z,99509.17
2017-09-11T22:45:26.720Z,99500.17
2017-09-11T22:47:59.797Z,99506.59
2017-09-11T22:50:32.465Z,99509.15
2017-09-11T22:53:05.347Z,99506.80
2017-09-11T22:55:37.320Z,99513.11
2017-09-11T22:58:09.697Z,99510.52
2017-09-11T23:00:42.661Z,99499.40
2017-09-11T23:03:13.809Z,99499.98
2017-09-11T23:05:45.904Z,99495.48
2017-09-11T23:08:22.411Z,99498.61
2017-09-11T23:10:54.396Z,99499.80
2017-09-11T23:13:28.171Z,99507.30
2017-09-11T23:16:00.259Z,99500.77
2017-09-11T23:18:31.358Z,99498.47
2017-09-11T23:21:03.645Z,99483.89
2017-09-11T23:23:36.533Z,99502.86
2017-09-11T23:26:08.786Z,99500.27
2017-09-11T23:31:35.143Z,99489.61
2017-09-11T23:34:10.952Z,99487.26
2017-09-11T23:36:43.075Z,99487.73
2017-09-11T23:39:15.639Z,99480.04
2017-09-11T23:41:47.616Z,99479.14
2017-09-11T23:44:19.695Z,99480.70
2017-09-11T23:46:51.729Z,99478.67
2017-09-11T23:49:23.535Z,99493.23
2017-09-11T23:51:55.647Z,99486.95
2017-09-11T23:54:26.831Z,99486.67
2017-09-11T23:56:57.939Z,99491.05
2017-09-11T23:59:30.087Z,99488.97
